WetterOnline ( https://www.wetteronline.de )

Wetter aktuell Wittenberg

Aktuelles Wetter: Wittenberg (106m)

6-stündlich | Neueste Meldungen
Ortszeit Temperatur Wetter
Sa, 20.04. 8:00 10.1° C wolkenlos
Sa, 20.04. 2:00 11.7° C wolkenlos
Fr, 19.04. 20:00 19.4° C wolkenlos
Fr, 19.04. 14:00 21.7° C wolkenlos
Fr, 19.04. 8:00 10.8° C wolkenlos
Fr, 19.04. 2:00 12.7° C wolkenlos
Do, 18.04. 20:00 17.7° C wolkenlos
Do, 18.04. 14:00 19.9° C wolkenlos
Ortszeit Temperatur Wetter
Sa, 20.04. 12:30 20.7° C wolkig
Sa, 20.04. 12:20 20.7° C wolkig
Sa, 20.04. 12:10 21.0° C wolkig
Sa, 20.04. 12:00 20.7° C leicht bewölkt
Sa, 20.04. 11:50 20.7° C wolkig
Sa, 20.04. 11:40 20.1° C wolkig
Sa, 20.04. 11:30 19.1° C wolkig
Sa, 20.04. 11:00 17.3° C leicht bewölkt
Sa, 20.04. 10:30 16.8° C fast wolkenlos
Sa, 20.04. 10:00 15.3° C wolkenlos
Sa, 20.04. 9:30 14.4° C wolkenlos
Ortszeit Relative Feuchte Sichtweite
Sa, 20.04. 8:00 51% 22 km
Sa, 20.04. 2:00 38% 45 km
Fr, 19.04. 20:00 28% 30 km
Fr, 19.04. 14:00 25% 7 km
Fr, 19.04. 8:00 49% 7 km
Fr, 19.04. 2:00 42% 27 km
Do, 18.04. 20:00 29% 15 km
Do, 18.04. 14:00 26% 10 km
Ortszeit Relative Feuchte Sichtweite
Sa, 20.04. 12:30 29% 7 km
Sa, 20.04. 12:20 29% -
Sa, 20.04. 12:10 29% -
Sa, 20.04. 12:00 30% 13 km
Sa, 20.04. 11:50 30% -
Sa, 20.04. 11:40 34% -
Sa, 20.04. 11:30 33% 18 km
Sa, 20.04. 11:00 40% 10 km
Sa, 20.04. 10:30 38% 10 km
Sa, 20.04. 10:00 44% 10 km
Sa, 20.04. 9:30 43% 13 km
Ortszeit Niederschlagsmenge Niederschlagsart
Sa, 20.04. 8:00 0.0 l/m2 in 12 Std. -
Sa, 20.04. 2:00 0.0 l/m2 in 6 Std. -
Fr, 19.04. 20:00 0.0 l/m2 in 12 Std. -
Fr, 19.04. 14:00 0.0 l/m2 in 6 Std. -
Fr, 19.04. 8:00 0.0 l/m2 in 12 Std. -
Fr, 19.04. 2:00 0.0 l/m2 in 6 Std. -
Do, 18.04. 20:00 0.0 l/m2 in 12 Std. -
Do, 18.04. 14:00 0.0 l/m2 in 6 Std. -
Ortszeit Niederschlagsmenge Niederschlagsart
Sa, 20.04. 12:30 0.0 l/m2 in 1 Std. -
Sa, 20.04. 12:20 keine Meldung -
Sa, 20.04. 12:10 keine Meldung -
Sa, 20.04. 12:00 0.0 l/m2 in 1 Std. -
Sa, 20.04. 11:50 keine Meldung -
Sa, 20.04. 11:40 keine Meldung -
Sa, 20.04. 11:30 0.0 l/m2 in 1 Std. -
Sa, 20.04. 11:00 0.0 l/m2 in 1 Std. -
Sa, 20.04. 10:30 0.0 l/m2 in 1 Std. -
Sa, 20.04. 10:00 0.0 l/m2 in 1 Std. -
Sa, 20.04. 9:30 0.0 l/m2 in 1 Std. -
Ortszeit Stärke Spitze Richtung
km/h Bft. km/h Grad Sektor
Sa, 20.04. 8:00 7 2 28 40° NO
Sa, 20.04. 2:00 14 3 29 40° NO
Fr, 19.04. 20:00 7 2 32 60° NO
Fr, 19.04. 14:00 11 2 29 70° O
Fr, 19.04. 8:00 9 2 19 70° O
Fr, 19.04. 2:00 11 2 18 80° O
Do, 18.04. 20:00 11 2 40 70° O
Do, 18.04. 14:00 18 3 40 100° O
Ortszeit Stärke Spitze Richtung
km/h Bft. km/h Grad Sektor
Sa, 20.04. 12:30 9 2 15 110° O
Sa, 20.04. 12:20 9 2 - 110° O
Sa, 20.04. 12:10 6 1 - 90° O
Sa, 20.04. 12:00 4 1 14 250° W
Sa, 20.04. 11:50 4 1 - 250° W
Sa, 20.04. 11:40 7 2 - 190° S
Sa, 20.04. 11:30 4 1 14 140° SO
Sa, 20.04. 11:00 6 1 11 190° S
Sa, 20.04. 10:30 4 1 7 140° SO
Sa, 20.04. 10:00 6 1 9 170° S
Sa, 20.04. 9:30 4 1 7 150° SO
Ortszeit Untergrenze Bedeckung Gattung
total tief tief mittel hoch
Sa, 20.04. 8:00 - 0/8 0/8 - - -
Sa, 20.04. 2:00 - 0/8 0/8 - - -
Fr, 19.04. 20:00 - 0/8 0/8 - - -
Fr, 19.04. 14:00 - 0/8 0/8 - - -
Fr, 19.04. 8:00 - 0/8 0/8 - - -
Fr, 19.04. 2:00 - 0/8 0/8 - - -
Do, 18.04. 20:00 - 0/8 0/8 - - -
Do, 18.04. 14:00 - 0/8 0/8 - - -
Ortszeit Bedeckungsgrad in Achtel und Wolkenuntergrenze
Sa, 20.04. 12:30 8(9000m)
Sa, 20.04. 12:20 8(9000m)
Sa, 20.04. 12:10 8(9000m)
Sa, 20.04. 12:00 8(9000m) 8(10500m)
Sa, 20.04. 11:50 8(9000m) 8(10500m)
Sa, 20.04. 11:40 8(9000m) 8(10500m)
Sa, 20.04. 11:30 8(9000m) 8(9000m)
Sa, 20.04. 11:00 4(9000m) 7(9000m)
Sa, 20.04. 10:30 2(10500m)
Sa, 20.04. 10:00 keine Wolken
Sa, 20.04. 9:30 keine Wolken
Ortszeit Luftdruck NN (hPa) Tendenz (hPa in 3 Std.)
Sa, 20.04. 8:00 1032 + 0,2
Sa, 20.04. 2:00 1032 + 0,3
Fr, 19.04. 20:00 1031 - 0,4
Fr, 19.04. 14:00 1032 - 0,9
Fr, 19.04. 8:00 1033 + 1,2
Fr, 19.04. 2:00 1031 + 0,7
Do, 18.04. 20:00 1029 + 0,5
Do, 18.04. 14:00 1030 - 0,8
Ortszeit Luftdruck NN (hPa) Tendenz (hPa in 3 Std.)
Sa, 20.04. 12:30 1030 - 0,9
Sa, 20.04. 12:20 1030 keine Meldung
Sa, 20.04. 12:10 1030 keine Meldung
Sa, 20.04. 12:00 1031 - 0,7
Sa, 20.04. 11:50 1031 keine Meldung
Sa, 20.04. 11:40 1031 keine Meldung
Sa, 20.04. 11:30 1031 - 0,5
Sa, 20.04. 11:00 1031 - 0,1
Sa, 20.04. 10:30 1031 + 0,2
Sa, 20.04. 10:00 1032 + 0,3
Sa, 20.04. 9:30 1032 + 0,4
Ortszeit Schneehöhe (cm)
Sa, 20.04. 8:00 0
Sa, 20.04. 2:00 0
Fr, 19.04. 20:00 0
Fr, 19.04. 14:00 0
Fr, 19.04. 8:00 0
Fr, 19.04. 2:00 0
Do, 18.04. 20:00 0
Do, 18.04. 14:00 0
Ortszeit Schneehöhe (cm)
Sa, 20.04. 12:30 0
Sa, 20.04. 12:20 0
Sa, 20.04. 12:10 0
Sa, 20.04. 12:00 0
Sa, 20.04. 11:50 0
Sa, 20.04. 11:40 0
Sa, 20.04. 11:30 0
Sa, 20.04. 11:00 0
Sa, 20.04. 10:30 0
Sa, 20.04. 10:00 0
Sa, 20.04. 9:30 0
Link zu dieser Seite / Seite empfehlen

Das Wetter in ...